createdAt,value
2023-04-22T00:00:07.912Z,15.80
2023-04-22T00:01:07.890Z,16.20
2023-04-22T00:02:08.060Z,15.10
2023-04-22T00:03:07.947Z,17.00
2023-04-22T00:04:08.260Z,14.80
2023-04-22T00:05:07.948Z,15.00
2023-04-22T00:06:07.843Z,15.10
2023-04-22T00:07:07.825Z,15.30
2023-04-22T00:08:07.841Z,18.60
2023-04-22T00:09:07.775Z,16.00
2023-04-22T00:10:07.820Z,16.70
2023-04-22T00:11:07.753Z,17.90
2023-04-22T00:12:07.784Z,16.10
2023-04-22T00:13:07.796Z,15.20
2023-04-22T00:14:07.770Z,15.20
2023-04-22T00:15:07.686Z,15.90
2023-04-22T00:16:07.829Z,14.40
2023-04-22T00:17:07.699Z,19.80
2023-04-22T00:18:07.708Z,14.40
2023-04-22T00:19:07.682Z,14.90
2023-04-22T00:20:07.805Z,14.70
2023-04-22T00:21:07.647Z,18.60
2023-04-22T00:22:07.651Z,14.90
2023-04-22T00:23:07.624Z,15.40
2023-04-22T00:24:07.663Z,15.80
2023-04-22T00:25:07.589Z,16.10
2023-04-22T00:26:07.621Z,15.20
2023-04-22T00:27:07.560Z,15.60
2023-04-22T00:28:07.539Z,15.40
2023-04-22T00:29:07.499Z,16.90
2023-04-22T00:30:07.539Z,16.20
2023-04-22T00:31:07.543Z,17.60
2023-04-22T00:32:07.500Z,15.40
2023-04-22T00:33:07.538Z,18.00
2023-04-22T00:34:07.465Z,15.60
2023-04-22T00:35:07.462Z,16.00
2023-04-22T00:36:07.444Z,18.50
2023-04-22T00:37:07.453Z,16.80
2023-04-22T00:38:07.496Z,15.30
2023-04-22T00:39:07.422Z,16.40
2023-04-22T00:40:07.362Z,16.30
2023-04-22T00:41:07.374Z,18.40
2023-04-22T00:42:07.373Z,16.50
2023-04-22T00:43:07.341Z,15.30
2023-04-22T00:44:07.354Z,16.80
2023-04-22T00:45:07.343Z,18.70
2023-04-22T00:46:07.272Z,17.00
2023-04-22T00:47:07.428Z,18.00
2023-04-22T00:48:07.325Z,17.70
2023-04-22T00:49:07.299Z,16.20
2023-04-22T00:50:07.252Z,17.00
2023-04-22T00:51:07.280Z,16.40
2023-04-22T00:52:07.197Z,18.00
2023-04-22T00:53:07.215Z,17.60
2023-04-22T00:54:07.211Z,15.50
2023-04-22T00:55:07.244Z,16.10
2023-04-22T00:56:07.279Z,15.70
2023-04-22T00:57:07.188Z,18.80
2023-04-22T00:58:07.111Z,18.00
2023-04-22T00:59:07.163Z,16.60
2023-04-22T01:00:07.091Z,16.20
2023-04-22T01:01:07.161Z,17.60
2023-04-22T01:02:07.313Z,16.20
2023-04-22T01:03:07.369Z,16.70
2023-04-22T01:04:07.219Z,16.00
2023-04-22T01:05:07.063Z,19.60
2023-04-22T01:06:07.050Z,16.20
2023-04-22T01:07:07.026Z,16.90
2023-04-22T01:08:07.044Z,16.90
2023-04-22T01:09:07.032Z,20.00
2023-04-22T01:10:06.968Z,16.70
2023-04-22T01:11:07.030Z,18.50
2023-04-22T01:12:06.939Z,17.10
2023-04-22T01:13:06.995Z,19.00
2023-04-22T01:14:06.974Z,19.70
2023-04-22T01:15:06.977Z,16.90
2023-04-22T01:16:06.957Z,17.50
2023-04-22T01:17:07.063Z,16.90
2023-04-22T01:18:06.882Z,18.70
2023-04-22T01:19:06.952Z,16.80
2023-04-22T01:20:07.042Z,16.90
2023-04-22T01:21:06.874Z,17.50
2023-04-22T01:22:06.811Z,16.80
2023-04-22T01:23:06.852Z,21.30
2023-04-22T01:24:06.780Z,17.60
2023-04-22T01:25:06.797Z,18.30
2023-04-22T01:26:06.899Z,21.10
2023-04-22T01:27:06.765Z,17.80
2023-04-22T01:28:06.765Z,19.20
2023-04-22T01:29:06.772Z,20.30
2023-04-22T01:30:06.713Z,18.50
2023-04-22T01:31:06.747Z,18.90
2023-04-22T01:32:06.946Z,17.40
2023-04-22T01:33:06.698Z,20.90
2023-04-22T01:34:06.671Z,17.50
2023-04-22T01:35:06.667Z,17.60
2023-04-22T01:36:06.640Z,18.30
2023-04-22T01:37:06.686Z,17.60
2023-04-22T01:38:06.616Z,19.30
2023-04-22T01:39:06.627Z,19.10
2023-04-22T01:40:06.562Z,17.80
2023-04-22T01:41:06.590Z,19.20
2023-04-22T01:42:06.564Z,17.80
2023-04-22T01:43:06.569Z,22.00
2023-04-22T01:44:06.571Z,18.10
2023-04-22T01:45:06.547Z,18.00
2023-04-22T01:46:06.510Z,18.30
2023-04-22T01:47:06.532Z,17.80
2023-04-22T01:48:06.473Z,19.40
2023-04-22T01:49:06.467Z,20.80
2023-04-22T01:50:06.585Z,19.80
2023-04-22T01:51:06.474Z,17.50
2023-04-22T01:52:06.403Z,19.10
2023-04-22T01:53:06.417Z,20.40
2023-04-22T01:54:06.411Z,19.60
2023-04-22T01:55:06.396Z,18.50
2023-04-22T01:56:06.406Z,18.80
2023-04-22T01:57:06.389Z,19.60
2023-04-22T01:58:06.332Z,19.50
2023-04-22T01:59:06.368Z,18.90
2023-04-22T02:00:06.313Z,21.60
2023-04-22T02:01:06.358Z,18.50
2023-04-22T02:02:06.454Z,18.80
2023-04-22T02:03:06.401Z,18.70
2023-04-22T02:04:06.270Z,19.40
2023-04-22T02:05:06.404Z,18.50
2023-04-22T02:06:06.223Z,18.80
2023-04-22T02:07:06.236Z,19.40
2023-04-22T02:08:06.267Z,19.70
2023-04-22T02:09:06.237Z,19.60
2023-04-22T02:10:06.172Z,18.90
2023-04-22T02:11:06.213Z,19.00
2023-04-22T02:12:06.136Z,18.90
2023-04-22T02:13:06.147Z,19.40
2023-04-22T02:14:06.174Z,19.50
2023-04-22T02:15:06.120Z,20.00
2023-04-22T02:16:06.189Z,19.70
2023-04-22T02:17:06.135Z,19.50
2023-04-22T02:18:06.062Z,24.00
2023-04-22T02:19:06.092Z,20.10
2023-04-22T02:20:06.136Z,19.10
2023-04-22T02:21:06.057Z,19.50
2023-04-22T02:22:06.029Z,19.70
2023-04-22T02:23:06.042Z,19.80
2023-04-22T02:24:05.989Z,20.60
2023-04-22T02:25:05.990Z,20.10
2023-04-22T02:26:06.006Z,19.20
2023-04-22T02:27:05.959Z,21.20
2023-04-22T02:28:05.959Z,20.30
2023-04-22T02:29:05.954Z,19.20
2023-04-22T02:30:05.895Z,22.10
2023-04-22T02:31:05.974Z,21.60
2023-04-22T02:32:05.907Z,19.60
2023-04-22T02:33:05.960Z,22.00
2023-04-22T02:34:05.864Z,20.30
2023-04-22T02:35:05.856Z,22.70
2023-04-22T02:36:05.841Z,21.60
2023-04-22T02:37:05.855Z,20.60
2023-04-22T02:38:05.845Z,21.00
2023-04-22T02:39:05.832Z,23.40
2023-04-22T02:40:05.760Z,20.60
2023-04-22T02:41:05.782Z,20.50
2023-04-22T02:42:05.758Z,20.20
2023-04-22T02:43:05.749Z,22.20
2023-04-22T02:44:05.861Z,23.10
2023-04-22T02:45:05.748Z,19.80
2023-04-22T02:46:05.726Z,21.10
2023-04-22T02:47:05.750Z,21.40
2023-04-22T02:48:05.689Z,21.10
2023-04-22T02:49:05.674Z,22.40
2023-04-22T02:50:05.804Z,20.70
2023-04-22T02:51:05.651Z,21.60
2023-04-22T02:52:05.639Z,23.30
2023-04-22T02:53:05.643Z,21.20
2023-04-22T02:54:05.575Z,21.40
2023-04-22T02:55:05.590Z,22.30
2023-04-22T02:56:05.747Z,21.80
2023-04-22T02:57:05.583Z,22.50
2023-04-22T02:58:05.529Z,22.30
2023-04-22T02:59:05.552Z,21.00
2023-04-22T03:00:05.505Z,21.80
2023-04-22T03:01:05.553Z,21.90
2023-04-22T03:02:07.037Z,22.20
2023-04-22T03:03:05.568Z,22.30
2023-04-22T03:04:05.569Z,21.70
2023-04-22T03:05:05.477Z,23.90
2023-04-22T03:06:05.415Z,21.40
2023-04-22T03:07:05.450Z,21.70
2023-04-22T03:08:05.419Z,21.00
2023-04-22T03:09:05.406Z,22.10
2023-04-22T03:10:05.386Z,20.80
2023-04-22T03:11:05.410Z,22.10
2023-04-22T03:12:05.334Z,21.60
2023-04-22T03:13:05.367Z,21.70
2023-04-22T03:14:05.454Z,21.70
2023-04-22T03:15:05.327Z,21.50
2023-04-22T03:16:05.316Z,22.10
2023-04-22T03:17:05.323Z,22.40
2023-04-22T03:18:05.331Z,22.30
2023-04-22T03:19:05.290Z,21.90
2023-04-22T03:20:05.272Z,23.30
2023-04-22T03:21:05.247Z,21.80
2023-04-22T03:22:05.240Z,24.40
2023-04-22T03:23:05.211Z,22.90
2023-04-22T03:24:05.197Z,21.60
2023-04-22T03:25:05.207Z,22.20
2023-04-22T03:26:05.274Z,22.90
2023-04-22T03:27:05.157Z,23.20
2023-04-22T03:28:05.153Z,22.50
2023-04-22T03:29:05.159Z,22.00
2023-04-22T03:30:05.091Z,22.70
2023-04-22T03:31:05.142Z,22.40
2023-04-22T03:32:05.157Z,22.10
2023-04-22T03:33:05.090Z,23.00
2023-04-22T03:34:05.067Z,22.60
2023-04-22T03:35:05.050Z,22.50
2023-04-22T03:36:05.057Z,22.90
2023-04-22T03:37:05.064Z,23.70
2023-04-22T03:38:05.032Z,22.80
2023-04-22T03:39:05.028Z,23.00
2023-04-22T03:40:04.956Z,22.50
2023-04-22T03:41:04.981Z,22.10
2023-04-22T03:42:04.955Z,22.50
2023-04-22T03:43:04.956Z,22.70
2023-04-22T03:44:05.090Z,21.90
2023-04-22T03:45:04.945Z,22.60
2023-04-22T03:46:04.930Z,23.40
2023-04-22T03:47:04.919Z,22.40
2023-04-22T03:48:04.925Z,22.50
2023-04-22T03:49:04.865Z,22.90
2023-04-22T03:50:04.963Z,22.90
2023-04-22T03:51:04.852Z,22.70
2023-04-22T03:52:04.838Z,22.70
2023-04-22T03:53:04.837Z,21.90
2023-04-22T03:54:04.792Z,21.90
2023-04-22T03:55:04.811Z,22.20
2023-04-22T03:56:04.777Z,26.20
2023-04-22T03:57:04.763Z,24.50
2023-04-22T03:58:04.744Z,22.60
2023-04-22T03:59:04.754Z,22.30
2023-04-22T04:00:04.686Z,22.20
2023-04-22T04:01:04.707Z,23.70
2023-04-22T04:02:04.811Z,22.30
2023-04-22T04:03:04.927Z,23.10
2023-04-22T04:04:04.890Z,22.80
2023-04-22T04:05:04.973Z,22.60
2023-04-22T04:06:04.827Z,21.90
2023-04-22T04:07:04.646Z,22.70
2023-04-22T04:08:04.618Z,23.90
2023-04-22T04:09:04.608Z,22.60
2023-04-22T04:10:04.582Z,22.70
2023-04-22T04:11:04.581Z,22.40
2023-04-22T04:12:04.558Z,23.40
2023-04-22T04:13:04.590Z,23.20
2023-04-22T04:14:04.589Z,23.50
2023-04-22T04:15:04.519Z,22.70
2023-04-22T04:16:04.548Z,22.40
2023-04-22T04:17:04.516Z,22.50
2023-04-22T04:18:04.565Z,21.60
2023-04-22T04:19:04.516Z,21.90
2023-04-22T04:20:04.551Z,22.50
2023-04-22T04:21:04.442Z,23.00
2023-04-22T04:22:04.425Z,22.90
2023-04-22T04:23:04.404Z,23.70
2023-04-22T04:24:04.427Z,24.20
2023-04-22T04:25:04.406Z,23.80
2023-04-22T04:26:04.378Z,23.50
2023-04-22T04:27:04.401Z,24.20
2023-04-22T04:28:04.314Z,23.40
2023-04-22T04:29:04.330Z,22.70
2023-04-22T04:30:04.314Z,23.20
2023-04-22T04:31:04.378Z,23.10
2023-04-22T04:32:04.378Z,22.80
2023-04-22T04:33:04.459Z,22.50
2023-04-22T04:34:04.268Z,23.30
2023-04-22T04:35:04.247Z,22.80
2023-04-22T04:36:04.225Z,22.80
2023-04-22T04:37:04.288Z,24.10
2023-04-22T04:38:04.292Z,22.60
2023-04-22T04:39:04.212Z,24.80
2023-04-22T04:40:04.148Z,22.80
2023-04-22T04:41:04.175Z,26.10
2023-04-22T04:42:04.144Z,24.40
2023-04-22T04:43:04.142Z,24.30
2023-04-22T04:44:04.153Z,23.80
2023-04-22T04:45:04.136Z,24.00
2023-04-22T04:46:04.101Z,22.60
2023-04-22T04:47:04.268Z,26.50
2023-04-22T04:48:04.129Z,23.70
2023-04-22T04:49:04.052Z,23.10
2023-04-22T04:50:04.079Z,23.60
2023-04-22T04:51:04.026Z,22.10
2023-04-22T04:52:04.015Z,23.10
2023-04-22T04:53:04.056Z,23.60
2023-04-22T04:54:04.017Z,23.70
2023-04-22T04:55:03.948Z,24.00
2023-04-22T04:56:04.117Z,23.40
2023-04-22T04:57:03.949Z,23.60
2023-04-22T04:58:03.931Z,23.90
2023-04-22T04:59:03.924Z,22.70
2023-04-22T05:00:03.912Z,23.30
2023-04-22T05:01:03.872Z,22.90
2023-04-22T05:02:04.031Z,22.10
2023-04-22T05:03:04.011Z,22.10
2023-04-22T05:04:04.154Z,23.50
2023-04-22T05:05:03.910Z,22.40
2023-04-22T05:06:03.851Z,22.50
2023-04-22T05:07:03.798Z,24.20
2023-04-22T05:08:03.958Z,21.50
2023-04-22T05:09:03.793Z,22.40
2023-04-22T05:10:03.777Z,22.30
2023-04-22T05:11:03.769Z,21.50
2023-04-22T05:12:03.765Z,21.60
2023-04-22T05:13:04.458Z,22.10
2023-04-22T05:14:03.784Z,23.90
2023-04-22T05:15:03.696Z,22.90
2023-04-22T05:16:03.776Z,23.10
2023-04-22T05:17:03.679Z,22.70
2023-04-22T05:18:03.748Z,22.00
2023-04-22T05:19:03.643Z,21.70
2023-04-22T05:20:03.791Z,22.40
2023-04-22T05:21:03.638Z,22.80
2023-04-22T05:22:03.630Z,22.10
2023-04-22T05:23:03.617Z,22.40
2023-04-22T05:24:03.584Z,23.00
2023-04-22T05:25:03.547Z,21.90
2023-04-22T05:26:03.644Z,21.10
2023-04-22T05:27:03.523Z,22.40
2023-04-22T05:28:03.561Z,23.30
2023-04-22T05:29:03.527Z,24.10
2023-04-22T05:30:03.515Z,21.60
2023-04-22T05:31:03.502Z,22.20
2023-04-22T05:32:03.545Z,21.20
2023-04-22T05:33:03.529Z,20.90
2023-04-22T05:34:03.496Z,21.50
2023-04-22T05:35:03.451Z,21.60
2023-04-22T05:36:03.432Z,23.10
2023-04-22T05:37:03.386Z,20.50
2023-04-22T05:38:03.463Z,20.40
2023-04-22T05:39:03.352Z,22.40
2023-04-22T05:40:03.399Z,20.90
2023-04-22T05:41:03.391Z,21.40
2023-04-22T05:42:03.355Z,21.70
2023-04-22T05:43:03.327Z,21.30
2023-04-22T05:44:03.440Z,21.50
2023-04-22T05:45:03.308Z,21.30
2023-04-22T05:46:03.370Z,20.20
2023-04-22T05:47:03.264Z,21.20
2023-04-22T05:48:03.312Z,20.90
2023-04-22T05:49:03.258Z,20.80
2023-04-22T05:50:03.276Z,20.80
2023-04-22T05:51:03.229Z,20.00
2023-04-22T05:52:03.218Z,22.60
2023-04-22T05:53:03.176Z,20.70
2023-04-22T05:54:03.198Z,20.70
2023-04-22T05:55:03.145Z,22.80
2023-04-22T05:56:03.297Z,20.70
2023-04-22T05:57:03.148Z,24.70
2023-04-22T05:58:03.130Z,23.30
2023-04-22T05:59:03.124Z,24.20
2023-04-22T06:00:03.109Z,19.80
2023-04-22T06:01:03.064Z,21.50
2023-04-22T06:02:03.209Z,24.60
2023-04-22T06:03:03.245Z,24.80
2023-04-22T06:04:03.387Z,24.10
2023-04-22T06:05:03.202Z,19.60
2023-04-22T06:06:03.075Z,20.10
2023-04-22T06:07:02.980Z,25.00
2023-04-22T06:08:03.149Z,18.70
2023-04-22T06:09:02.980Z,19.70
2023-04-22T06:11:03.990Z,20.30
2023-04-22T06:12:02.943Z,19.50
2023-04-22T06:13:02.912Z,19.10
2023-04-22T06:14:02.989Z,17.90
2023-04-22T06:15:02.894Z,17.60
2023-04-22T06:16:02.937Z,19.60
2023-04-22T06:17:02.895Z,17.90
2023-04-22T06:18:02.907Z,23.60
2023-04-22T06:19:02.863Z,18.00
2023-04-22T06:20:02.965Z,20.10
2023-04-22T06:21:02.814Z,18.50
2023-04-22T06:22:02.839Z,21.80
2023-04-22T06:23:02.794Z,20.30
2023-04-22T06:24:02.781Z,18.70
2023-04-22T06:25:02.748Z,21.60
2023-04-22T06:26:02.904Z,16.80
2023-04-22T06:27:02.723Z,20.60
2023-04-22T06:28:02.770Z,18.10
2023-04-22T06:29:02.719Z,17.50
2023-04-22T06:30:02.721Z,16.70
2023-04-22T06:31:02.765Z,16.20
2023-04-22T06:32:02.723Z,16.30
2023-04-22T06:33:02.680Z,16.70
2023-04-22T06:34:02.708Z,16.50
2023-04-22T06:35:02.615Z,17.10
2023-04-22T06:36:02.660Z,17.50
2023-04-22T06:37:02.611Z,18.00
2023-04-22T06:38:02.634Z,15.40
2023-04-22T06:39:02.579Z,17.50
2023-04-22T06:40:02.603Z,15.40
2023-04-22T06:41:02.569Z,15.50
2023-04-22T06:42:02.549Z,15.30
2023-04-22T06:43:02.529Z,17.20
2023-04-22T06:44:02.561Z,13.60
2023-04-22T06:45:02.487Z,16.10
2023-04-22T06:46:02.539Z,13.90
2023-04-22T06:47:02.517Z,18.90
2023-04-22T06:48:02.490Z,13.90
2023-04-22T06:49:02.454Z,14.60
2023-04-22T06:50:02.546Z,14.70
2023-04-22T06:51:02.474Z,13.80
2023-04-22T06:52:02.409Z,16.40
2023-04-22T06:53:02.410Z,15.00
2023-04-22T06:54:02.409Z,12.70
2023-04-22T06:55:02.346Z,12.60
2023-04-22T06:56:02.440Z,12.50
2023-04-22T06:57:02.347Z,15.50
2023-04-22T06:58:02.333Z,15.70
2023-04-22T06:59:02.319Z,13.10
2023-04-22T07:00:02.313Z,12.50
2023-04-22T07:01:02.268Z,11.80
2023-04-22T07:02:02.527Z,16.20
2023-04-22T07:03:02.307Z,12.10
2023-04-22T07:04:02.297Z,13.30
2023-04-22T07:05:02.238Z,12.50
2023-04-22T07:06:02.234Z,13.30
2023-04-22T07:07:02.207Z,12.70
2023-04-22T07:08:02.231Z,13.00
2023-04-22T07:09:02.163Z,16.90
2023-04-22T07:10:02.194Z,13.10
2023-04-22T07:11:02.159Z,14.10
2023-04-22T07:12:02.144Z,15.30
2023-04-22T07:13:02.100Z,14.00
2023-04-22T07:14:02.175Z,11.80
2023-04-22T07:15:02.084Z,18.20
2023-04-22T07:16:02.172Z,11.70
2023-04-22T07:17:02.073Z,12.20
2023-04-22T07:18:02.074Z,13.10
2023-04-22T07:19:02.050Z,14.50
2023-04-22T07:20:02.063Z,11.00
2023-04-22T07:21:02.013Z,12.50
2023-04-22T07:22:02.037Z,17.40
2023-04-22T07:23:01.978Z,14.50
2023-04-22T07:24:02.022Z,18.60
2023-04-22T07:25:01.990Z,15.80
2023-04-22T07:26:01.991Z,10.40
2023-04-22T07:27:01.908Z,12.10
2023-04-22T07:28:01.949Z,11.20
2023-04-22T07:29:01.917Z,10.30
2023-04-22T07:30:01.901Z,13.10
2023-04-22T07:31:01.887Z,13.30
2023-04-22T07:32:02.054Z,11.80
2023-04-22T07:33:01.887Z,9.90
2023-04-22T07:34:01.876Z,11.80
2023-04-22T07:35:01.811Z,9.70
2023-04-22T07:36:01.857Z,10.50
2023-04-22T07:37:01.807Z,12.70
2023-04-22T07:38:01.826Z,9.20
2023-04-22T07:39:01.781Z,8.40
2023-04-22T07:40:01.765Z,13.30
2023-04-22T07:41:01.724Z,10.10
2023-04-22T07:42:01.775Z,10.70
2023-04-22T07:43:01.723Z,8.30
2023-04-22T07:44:01.770Z,10.10
2023-04-22T07:45:01.673Z,7.60
2023-04-22T07:46:01.736Z,7.40
2023-04-22T07:47:01.656Z,7.90
2023-04-22T07:48:01.748Z,10.40
2023-04-22T07:49:01.713Z,8.70
2023-04-22T07:50:01.799Z,7.40
2023-04-22T07:51:01.653Z,7.10
2023-04-22T07:52:01.606Z,10.80
2023-04-22T07:53:01.570Z,7.20
2023-04-22T07:54:01.620Z,7.50
2023-04-22T07:55:01.539Z,10.00
2023-04-22T07:56:02.220Z,6.60
2023-04-22T07:57:01.538Z,8.00
2023-04-22T07:58:01.529Z,7.60
2023-04-22T07:59:01.513Z,8.20
2023-04-22T08:00:01.537Z,6.90
2023-04-22T08:01:01.484Z,6.90
2023-04-22T08:02:01.642Z,6.70
2023-04-22T08:03:01.558Z,9.20
2023-04-22T08:04:01.819Z,6.20
2023-04-22T08:05:01.591Z,7.70
2023-04-22T08:06:01.428Z,8.50
2023-04-22T08:07:01.922Z,7.10
2023-04-22T08:08:01.507Z,6.40
2023-04-22T08:09:01.348Z,5.80
2023-04-22T08:10:01.449Z,6.30
2023-04-22T08:11:01.345Z,6.40
2023-04-22T08:12:01.370Z,6.50
2023-04-22T08:13:01.340Z,7.10
2023-04-22T08:14:01.431Z,9.20
2023-04-22T08:15:01.294Z,7.60
2023-04-22T08:16:01.374Z,9.70
2023-04-22T08:17:01.278Z,6.20
2023-04-22T08:18:01.344Z,8.80
2023-04-22T08:19:01.256Z,10.00
2023-04-22T08:20:01.353Z,6.60
2023-04-22T08:21:01.196Z,6.40
2023-04-22T08:22:01.242Z,6.90
2023-04-22T08:23:01.181Z,7.10
2023-04-22T08:24:01.208Z,9.10
2023-04-22T08:25:01.164Z,7.00
2023-04-22T08:26:01.282Z,8.30
2023-04-22T08:27:01.150Z,7.20
2023-04-22T08:28:01.147Z,6.40
2023-04-22T08:29:01.123Z,8.80
2023-04-22T08:30:01.131Z,6.80
2023-04-22T08:31:01.245Z,5.60
2023-04-22T08:32:01.110Z,5.70
2023-04-22T08:33:01.064Z,7.50
2023-04-22T08:34:01.080Z,6.40
2023-04-22T08:35:04.959Z,6.70
2023-04-22T08:36:01.066Z,10.60
2023-04-22T08:37:01.026Z,7.80
2023-04-22T08:38:01.123Z,6.40
2023-04-22T08:39:00.999Z,8.50
2023-04-22T08:40:00.980Z,8.20
2023-04-22T08:41:00.930Z,5.60
2023-04-22T08:42:00.971Z,6.70
2023-04-22T08:43:00.914Z,5.70
2023-04-22T08:44:00.974Z,6.70
2023-04-22T08:45:00.902Z,6.60
2023-04-22T08:46:00.902Z,5.30
2023-04-22T08:47:02.633Z,6.90
2023-04-22T08:48:00.934Z,5.50
2023-04-22T08:49:00.862Z,5.20
2023-04-22T08:50:00.883Z,6.40
2023-04-22T08:51:00.829Z,7.20
2023-04-22T08:52:00.824Z,5.30
2023-04-22T08:53:00.765Z,8.60
2023-04-22T08:54:00.826Z,5.20
2023-04-22T08:55:00.755Z,6.60
2023-04-22T08:56:00.839Z,6.00
2023-04-22T08:57:00.749Z,6.20
2023-04-22T08:58:00.734Z,7.20
2023-04-22T08:59:00.716Z,7.50
2023-04-22T09:00:00.724Z,4.90
2023-04-22T09:01:00.671Z,5.20
2023-04-22T09:02:00.797Z,4.80
2023-04-22T09:03:00.760Z,4.90
2023-04-22T09:04:00.768Z,6.10
2023-04-22T09:05:00.650Z,6.00
2023-04-22T09:06:00.629Z,4.90
2023-04-22T09:07:00.617Z,5.60
2023-04-22T09:08:00.724Z,7.00
2023-04-22T09:09:00.614Z,5.80
2023-04-22T09:10:00.559Z,6.00
2023-04-22T09:11:00.598Z,4.80
2023-04-22T09:12:00.516Z,6.50
2023-04-22T09:13:00.528Z,5.00
2023-04-22T09:14:00.579Z,5.40
2023-04-22T09:15:00.515Z,7.70
2023-04-22T09:16:00.539Z,6.00
2023-04-22T09:17:00.501Z,5.60
2023-04-22T09:18:00.504Z,6.60
2023-04-22T09:19:00.467Z,6.90
2023-04-22T09:20:00.472Z,7.00
2023-04-22T09:21:00.452Z,6.80
2023-04-22T09:22:00.392Z,5.00
2023-04-22T09:23:00.422Z,5.80
2023-04-22T09:24:00.371Z,6.20
2023-04-22T09:25:00.381Z,5.80
2023-04-22T09:26:00.403Z,6.00
2023-04-22T09:27:00.383Z,4.10
2023-04-22T09:28:00.344Z,4.00
2023-04-22T09:29:00.350Z,6.80
2023-04-22T09:30:00.278Z,9.10
2023-04-22T09:31:00.321Z,4.00
2023-04-22T09:32:00.354Z,4.40
2023-04-22T09:33:00.350Z,4.80
2023-04-22T09:34:00.253Z,5.60
2023-04-22T09:35:00.268Z,5.50
2023-04-22T09:36:00.207Z,4.00
2023-04-22T09:37:00.266Z,5.20
2023-04-22T09:38:00.243Z,3.70
2023-04-22T09:39:00.202Z,6.20
2023-04-22T09:40:00.205Z,4.60
2023-04-22T09:41:00.185Z,3.90
2023-04-22T09:42:00.116Z,5.20
2023-04-22T09:43:00.160Z,5.00
2023-04-22T09:44:00.209Z,6.80
2023-04-22T09:45:01.836Z,4.20
2023-04-22T09:46:00.174Z,6.00
2023-04-22T09:47:00.074Z,5.80
2023-04-22T09:48:00.135Z,4.20
2023-04-22T09:49:00.124Z,4.30
2023-04-22T09:50:00.041Z,6.80
2023-04-22T09:51:00.024Z,5.00
2023-04-22T09:52:00.015Z,4.70
2023-04-22T09:52:59.970Z,13.90
2023-04-22T09:53:59.958Z,4.90
2023-04-22T09:55:00.000Z,4.00
2023-04-22T09:56:00.060Z,4.50
2023-04-22T09:56:59.946Z,4.30
2023-04-22T09:57:59.940Z,3.80
2023-04-22T09:58:59.921Z,9.30
2023-04-22T09:59:59.910Z,3.80
2023-04-22T10:00:59.972Z,4.70
2023-04-22T10:01:59.884Z,6.50
2023-04-22T10:02:59.977Z,4.10
2023-04-22T10:03:59.921Z,4.40
2023-04-22T10:04:59.840Z,5.20
2023-04-22T10:05:59.834Z,4.70
2023-04-22T10:06:59.807Z,6.80
2023-04-22T10:07:59.847Z,4.30
2023-04-22T10:08:59.811Z,4.90
2023-04-22T10:09:59.757Z,3.90
2023-04-22T10:10:59.798Z,3.50
2023-04-22T10:11:59.721Z,3.50
2023-04-22T10:12:59.734Z,4.50
2023-04-22T10:13:59.841Z,5.80
2023-04-22T10:14:59.710Z,5.60
2023-04-22T10:15:59.705Z,5.40
2023-04-22T10:16:59.829Z,6.00
2023-04-22T10:17:59.675Z,5.00
2023-04-22T10:18:59.683Z,6.30
2023-04-22T10:19:59.645Z,4.10
2023-04-22T10:20:59.634Z,7.00
2023-04-22T10:21:59.620Z,3.70
2023-04-22T10:22:59.632Z,3.90
2023-04-22T10:23:59.570Z,6.10
2023-04-22T10:24:59.581Z,3.50
2023-04-22T10:25:59.701Z,5.60
2023-04-22T10:26:59.726Z,5.50
2023-04-22T10:27:59.541Z,3.50
2023-04-22T10:28:59.569Z,4.60
2023-04-22T10:29:59.484Z,4.90
2023-04-22T10:30:59.568Z,3.90
2023-04-22T10:31:59.507Z,4.70
2023-04-22T10:32:59.535Z,7.20
2023-04-22T10:33:59.467Z,3.70
2023-04-22T10:34:59.453Z,3.90
2023-04-22T10:35:59.565Z,4.50
2023-04-22T10:37:02.233Z,3.50
2023-04-22T10:37:59.410Z,3.70
2023-04-22T10:38:59.419Z,14.80
2023-04-22T10:39:59.387Z,5.10
2023-04-22T10:40:59.402Z,4.00
2023-04-22T10:41:59.334Z,4.40
2023-04-22T10:42:59.375Z,3.50
2023-04-22T10:43:59.357Z,5.50
2023-04-22T10:44:59.314Z,6.50
2023-04-22T10:45:59.326Z,3.90
2023-04-22T10:46:59.292Z,4.20
2023-04-22T10:47:59.331Z,4.10
2023-04-22T10:48:59.294Z,5.10
2023-04-22T10:49:59.273Z,5.10
2023-04-22T10:50:59.279Z,4.60
2023-04-22T10:51:59.219Z,4.60
2023-04-22T10:52:59.228Z,5.60
2023-04-22T10:53:59.209Z,6.50
2023-04-22T10:54:59.237Z,4.70
2023-04-22T10:55:59.199Z,4.60
2023-04-22T10:56:59.217Z,3.80
2023-04-22T10:57:59.153Z,4.20
2023-04-22T10:58:59.163Z,3.80
2023-04-22T10:59:59.121Z,3.80
2023-04-22T11:00:59.159Z,4.30
2023-04-22T11:01:59.215Z,3.50
2023-04-22T11:02:59.212Z,3.90
2023-04-22T11:03:59.126Z,5.20
2023-04-22T11:04:59.055Z,5.40
2023-04-22T11:05:59.051Z,3.50
2023-04-22T11:06:59.031Z,4.20
2023-04-22T11:07:59.052Z,5.60
2023-04-22T11:08:59.052Z,3.30
2023-04-22T11:09:58.965Z,3.90
2023-04-22T11:10:59.000Z,5.40
2023-04-22T11:11:58.946Z,5.00
2023-04-22T11:12:58.951Z,4.40
2023-04-22T11:13:59.054Z,4.70
2023-04-22T11:14:58.973Z,3.60
2023-04-22T11:15:58.950Z,4.00
2023-04-22T11:16:58.917Z,5.50
2023-04-22T11:17:58.958Z,3.20
2023-04-22T11:18:58.893Z,5.60
2023-04-22T11:19:58.954Z,3.70
2023-04-22T11:20:58.845Z,12.80
2023-04-22T11:21:58.851Z,4.10
2023-04-22T11:22:58.810Z,4.10
2023-04-22T11:23:58.809Z,4.30
2023-04-22T11:24:58.842Z,6.00
2023-04-22T11:25:58.838Z,3.80
2023-04-22T11:26:58.776Z,3.80
2023-04-22T11:27:58.738Z,6.30
2023-04-22T11:28:58.760Z,5.00
2023-04-22T11:29:58.698Z,4.10
2023-04-22T11:30:58.726Z,5.70
2023-04-22T11:31:58.762Z,7.10
2023-04-22T11:32:58.696Z,4.50
2023-04-22T11:33:58.678Z,5.70
2023-04-22T11:34:58.672Z,5.00
2023-04-22T11:35:58.644Z,5.30
2023-04-22T11:36:58.644Z,4.10
2023-04-22T11:37:58.607Z,7.60
2023-04-22T11:38:58.629Z,5.20
2023-04-22T11:40:58.583Z,3.80
2023-04-22T11:41:58.556Z,5.20
2023-04-22T11:42:58.573Z,4.30
2023-04-22T11:43:58.612Z,6.10
2023-04-22T11:44:58.525Z,5.10
2023-04-22T11:45:58.576Z,3.80
2023-04-22T11:46:58.522Z,7.50
2023-04-22T11:47:58.558Z,10.60
2023-04-22T11:48:58.483Z,7.70
2023-04-22T11:49:58.454Z,7.20
2023-04-22T11:50:58.482Z,6.20
2023-04-22T11:51:58.395Z,4.60
2023-04-22T11:52:58.411Z,3.30
2023-04-22T11:53:58.396Z,3.70
2023-04-22T11:54:58.385Z,3.80
2023-04-22T11:55:58.471Z,4.30
2023-04-22T11:56:58.379Z,6.60
2023-04-22T11:57:58.324Z,5.40
2023-04-22T11:58:58.329Z,4.00
2023-04-22T11:59:58.325Z,4.30
2023-04-22T12:00:58.324Z,4.30
2023-04-22T12:01:58.317Z,4.20
2023-04-22T12:02:58.535Z,3.60
2023-04-22T12:03:58.367Z,3.50
2023-04-22T12:04:58.264Z,3.90
2023-04-22T12:05:58.245Z,4.40
2023-04-22T12:06:58.223Z,12.60
2023-04-22T12:07:58.328Z,4.40
2023-04-22T12:08:58.230Z,4.40
2023-04-22T12:09:58.160Z,6.80
2023-04-22T12:10:58.199Z,3.80
2023-04-22T12:11:58.125Z,5.20
2023-04-22T12:12:58.175Z,4.30
2023-04-22T12:13:58.169Z,4.50
2023-04-22T12:14:58.134Z,6.80
2023-04-22T12:15:58.104Z,4.00
2023-04-22T12:16:58.136Z,3.60
2023-04-22T12:17:58.069Z,3.30
2023-04-22T12:18:58.105Z,3.70
2023-04-22T12:19:58.052Z,3.90
2023-04-22T12:20:58.052Z,5.00
2023-04-22T12:21:58.057Z,2.70
2023-04-22T12:22:58.012Z,4.20
2023-04-22T12:23:58.001Z,3.60
2023-04-22T12:24:58.010Z,3.80
2023-04-22T12:25:58.077Z,5.20
2023-04-22T12:26:57.996Z,2.80
2023-04-22T12:27:58.859Z,3.50
2023-04-22T12:28:58.025Z,4.60
2023-04-22T12:29:57.926Z,5.10
2023-04-22T12:30:57.959Z,2.80
2023-04-22T12:31:57.912Z,2.70
2023-04-22T12:32:57.902Z,4.60
2023-04-22T12:33:57.945Z,2.80
2023-04-22T12:34:57.857Z,3.10
2023-04-22T12:35:57.848Z,4.60
2023-04-22T12:36:57.854Z,4.70
2023-04-22T12:37:57.917Z,3.50
2023-04-22T12:38:57.834Z,3.80
2023-04-22T12:39:57.817Z,12.60
2023-04-22T12:40:57.783Z,7.60
2023-04-22T12:41:57.793Z,4.00
2023-04-22T12:42:57.768Z,9.60
2023-04-22T12:43:57.865Z,5.20
2023-04-22T12:44:57.756Z,4.60
2023-04-22T12:45:57.713Z,3.30
2023-04-22T12:48:21.309Z,4.50
2023-04-22T12:48:26.998Z,4.60
2023-04-22T12:49:26.109Z,5.20
2023-04-22T12:50:26.000Z,4.30
2023-04-22T12:51:26.051Z,5.70
2023-04-22T12:52:25.981Z,3.40
2023-04-22T12:53:25.979Z,4.90
2023-04-22T12:54:25.948Z,5.20
2023-04-22T12:55:25.994Z,3.00
2023-04-22T12:56:25.919Z,5.80
2023-04-22T12:57:25.930Z,4.10
2023-04-22T12:58:25.865Z,4.20
2023-04-22T12:59:25.904Z,3.90
2023-04-22T13:00:25.850Z,4.20
2023-04-22T13:01:25.936Z,5.20
2023-04-22T13:02:35.075Z,2.90
2023-04-22T13:03:25.927Z,3.00
2023-04-22T13:04:25.902Z,2.80